createdAt,value
2019-05-16T00:00:10.597Z,3.85
2019-05-16T00:02:38.997Z,3.77
2019-05-16T00:05:08.482Z,3.72
2019-05-16T00:07:39.063Z,3.64
2019-05-16T00:10:08.431Z,3.59
2019-05-16T00:12:39.838Z,3.57
2019-05-16T00:15:08.974Z,3.56
2019-05-16T00:17:38.535Z,3.52
2019-05-16T00:20:09.212Z,3.48
2019-05-16T00:22:39.431Z,3.46
2019-05-16T00:25:09.026Z,3.42
2019-05-16T00:27:38.588Z,3.36
2019-05-16T00:30:08.863Z,3.34
2019-05-16T00:32:39.091Z,3.29
2019-05-16T00:35:09.424Z,3.22
2019-05-16T00:37:39.178Z,3.08
2019-05-16T00:40:08.347Z,3.06
2019-05-16T00:42:38.939Z,3.01
2019-05-16T00:45:09.196Z,2.95
2019-05-16T00:47:39.012Z,2.89
2019-05-16T00:50:09.024Z,2.84
2019-05-16T00:52:39.317Z,2.80
2019-05-16T00:55:08.480Z,2.75
2019-05-16T00:57:38.962Z,2.67
2019-05-16T01:00:11.047Z,2.61
2019-05-16T01:02:39.831Z,2.57
2019-05-16T01:05:08.895Z,2.52
2019-05-16T01:07:39.136Z,2.49
2019-05-16T01:10:08.965Z,2.41
2019-05-16T01:12:39.123Z,2.34
2019-05-16T01:15:09.669Z,2.28
2019-05-16T01:17:39.078Z,2.21
2019-05-16T01:20:08.688Z,2.16
2019-05-16T01:22:38.534Z,2.09
2019-05-16T01:25:09.342Z,2.08
2019-05-16T01:27:38.749Z,2.05
2019-05-16T01:30:09.129Z,1.99
2019-05-16T01:32:39.085Z,1.98
2019-05-16T01:35:08.450Z,1.96
2019-05-16T01:37:38.398Z,1.92
2019-05-16T01:40:08.506Z,1.89
2019-05-16T01:42:38.522Z,1.81
2019-05-16T01:45:08.468Z,1.79
2019-05-16T01:47:39.290Z,1.75
2019-05-16T01:50:08.807Z,1.68
2019-05-16T01:52:38.260Z,1.64
2019-05-16T01:55:08.198Z,1.60
2019-05-16T01:57:38.879Z,1.57
2019-05-16T02:00:08.357Z,1.49
2019-05-16T02:02:38.470Z,1.52
2019-05-16T02:05:08.612Z,1.53
2019-05-16T02:07:38.739Z,1.47
2019-05-16T02:10:09.296Z,1.40
2019-05-16T02:12:38.591Z,1.36
2019-05-16T02:15:08.201Z,1.31
2019-05-16T02:17:38.517Z,1.26
2019-05-16T02:20:08.919Z,1.21
2019-05-16T02:22:38.910Z,1.21
2019-05-16T02:25:08.681Z,1.18
2019-05-16T02:27:39.695Z,1.15
2019-05-16T02:30:12.027Z,1.10
2019-05-16T02:32:41.385Z,1.12
2019-05-16T02:35:11.777Z,1.14
2019-05-16T02:37:42.236Z,1.14
2019-05-16T02:40:11.955Z,1.12
2019-05-16T02:42:42.010Z,1.09
2019-05-16T02:45:11.978Z,1.08
2019-05-16T02:47:42.410Z,1.05
2019-05-16T02:50:12.232Z,1.04
2019-05-16T02:52:41.777Z,1.01
2019-05-16T02:55:11.875Z,0.98
2019-05-16T02:57:41.724Z,0.94
2019-05-16T03:00:12.508Z,0.94
2019-05-16T03:02:41.908Z,0.92
2019-05-16T03:05:12.230Z,0.88
2019-05-16T03:07:47.291Z,0.85
2019-05-16T03:10:15.181Z,0.80
2019-05-16T03:12:43.899Z,0.79
2019-05-16T03:15:13.046Z,0.80
2019-05-16T03:17:44.255Z,0.79
2019-05-16T03:20:13.493Z,0.82
2019-05-16T03:22:42.909Z,0.79
2019-05-16T03:25:11.970Z,0.81
2019-05-16T03:27:41.456Z,0.86
2019-05-16T03:30:15.810Z,0.81
2019-05-16T03:32:45.318Z,0.78
2019-05-16T03:35:15.259Z,0.81
2019-05-16T03:37:55.049Z,0.80
2019-05-16T03:40:15.238Z,0.82
2019-05-16T03:42:43.643Z,0.79
2019-05-16T03:45:12.609Z,0.79
2019-05-16T03:47:42.645Z,0.79
2019-05-16T03:50:11.965Z,0.82
2019-05-16T03:52:43.526Z,0.83
2019-05-16T03:55:11.221Z,0.81
2019-05-16T03:57:41.458Z,0.84
2019-05-16T04:00:12.057Z,0.85
2019-05-16T04:02:44.783Z,0.87
2019-05-16T04:05:11.622Z,0.87
2019-05-16T04:07:41.799Z,0.96
2019-05-16T04:10:11.144Z,1.02
2019-05-16T04:12:41.837Z,1.09
2019-05-16T04:15:11.919Z,1.18
2019-05-16T04:17:41.469Z,1.25
2019-05-16T04:20:11.748Z,1.29
2019-05-16T04:22:41.077Z,1.38
2019-05-16T04:25:11.274Z,1.46
2019-05-16T04:27:41.653Z,1.59
2019-05-16T04:30:11.596Z,1.67
2019-05-16T04:32:42.000Z,1.76
2019-05-16T04:35:11.674Z,1.87
2019-05-16T04:37:42.175Z,1.99
2019-05-16T04:40:11.908Z,2.13
2019-05-16T04:42:41.894Z,2.26
2019-05-16T04:45:12.203Z,2.39
2019-05-16T04:47:41.600Z,2.50
2019-05-16T04:50:11.859Z,2.62
2019-05-16T04:52:41.874Z,2.76
2019-05-16T04:55:12.232Z,2.87
2019-05-16T04:57:42.106Z,2.94
2019-05-16T05:00:11.823Z,3.02
2019-05-16T05:02:41.746Z,3.11
2019-05-16T05:05:12.602Z,3.21
2019-05-16T05:07:41.449Z,3.32
2019-05-16T05:10:11.571Z,3.38
2019-05-16T05:12:40.913Z,3.52
2019-05-16T05:15:11.418Z,3.57
2019-05-16T05:17:41.332Z,3.69
2019-05-16T05:20:10.907Z,3.80
2019-05-16T05:22:39.910Z,3.89
2019-05-16T05:25:10.895Z,3.97
2019-05-16T05:27:41.270Z,4.10
2019-05-16T05:30:10.917Z,4.21
2019-05-16T05:32:41.276Z,4.32
2019-05-16T05:35:10.906Z,4.46
2019-05-16T05:37:41.069Z,4.58
2019-05-16T05:40:11.018Z,4.68
2019-05-16T05:42:40.379Z,4.72
2019-05-16T05:45:11.205Z,4.80
2019-05-16T05:47:40.193Z,4.92
2019-05-16T05:50:11.194Z,4.97
2019-05-16T05:52:41.119Z,5.09
2019-05-16T05:55:10.690Z,5.15
2019-05-16T05:57:40.273Z,5.21
2019-05-16T06:00:10.078Z,5.29
2019-05-16T06:02:40.346Z,5.29
2019-05-16T06:05:10.683Z,5.32
2019-05-16T06:07:40.536Z,5.38
2019-05-16T06:10:10.600Z,5.44
2019-05-16T06:12:40.911Z,5.51
2019-05-16T06:15:12.628Z,5.61
2019-05-16T06:17:40.419Z,5.67
2019-05-16T06:20:14.409Z,5.74
2019-05-16T06:22:40.306Z,5.82
2019-05-16T06:25:13.442Z,5.89
2019-05-16T06:27:40.633Z,5.98
2019-05-16T06:30:11.489Z,6.03
2019-05-16T06:32:40.025Z,6.14
2019-05-16T06:35:09.734Z,6.25
2019-05-16T06:37:40.642Z,6.41
2019-05-16T06:40:10.973Z,6.39
2019-05-16T06:42:40.226Z,6.52
2019-05-16T06:45:10.369Z,6.68
2019-05-16T06:47:39.628Z,6.75
2019-05-16T06:50:10.990Z,6.85
2019-05-16T06:52:40.845Z,6.89
2019-05-16T06:55:10.067Z,6.74
2019-05-16T06:57:40.860Z,6.75
2019-05-16T07:00:10.873Z,6.76
2019-05-16T07:02:40.864Z,6.76
2019-05-16T07:05:10.234Z,6.80
2019-05-16T07:07:40.427Z,6.83
2019-05-16T07:10:09.877Z,6.88
2019-05-16T07:12:41.095Z,6.92
2019-05-16T07:15:12.285Z,6.94
2019-05-16T07:17:40.538Z,6.89
2019-05-16T07:20:10.553Z,6.88
2019-05-16T07:22:40.658Z,6.95
2019-05-16T07:25:11.072Z,6.94
2019-05-16T07:27:40.099Z,7.02
2019-05-16T07:30:10.802Z,6.96
2019-05-16T07:32:40.510Z,7.13
2019-05-16T07:35:10.393Z,7.14
2019-05-16T07:37:39.958Z,7.23
2019-05-16T07:40:19.023Z,7.43
2019-05-16T07:42:40.422Z,7.55
2019-05-16T07:45:10.653Z,7.81
2019-05-16T07:47:40.297Z,7.72
2019-05-16T07:50:10.476Z,7.69
2019-05-16T07:52:40.228Z,7.41
2019-05-16T07:55:10.772Z,7.47
2019-05-16T07:57:40.044Z,7.42
2019-05-16T08:00:09.991Z,7.48
2019-05-16T08:02:40.268Z,7.55
2019-05-16T08:05:10.279Z,7.65
2019-05-16T08:07:40.718Z,7.71
2019-05-16T08:10:10.920Z,7.74
2019-05-16T08:12:40.811Z,7.87
2019-05-16T08:15:10.247Z,7.83
2019-05-16T08:17:41.364Z,8.03
2019-05-16T08:20:10.849Z,8.06
2019-05-16T08:22:41.494Z,8.09
2019-05-16T08:25:10.798Z,8.16
2019-05-16T08:27:41.274Z,8.22
2019-05-16T08:35:11.441Z,7.93
2019-05-16T08:37:46.091Z,7.78
2019-05-16T08:40:11.438Z,8.15
2019-05-16T08:42:41.575Z,8.28
2019-05-16T08:47:42.552Z,8.45
2019-05-16T08:50:14.663Z,8.56
2019-05-16T08:52:43.859Z,8.66
2019-05-16T08:55:13.651Z,8.92
2019-05-16T08:57:42.158Z,8.84
2019-05-16T09:00:14.709Z,8.98
2019-05-16T09:02:42.347Z,9.06
2019-05-16T09:05:13.669Z,9.38
2019-05-16T09:07:41.384Z,9.02
2019-05-16T09:10:21.222Z,8.40
2019-05-16T09:10:34.820Z,7.94
2019-05-16T09:10:40.735Z,8.12
2019-05-16T09:10:42.922Z,9.06
2019-05-16T09:12:40.644Z,8.98
2019-05-16T09:15:09.290Z,8.82
2019-05-16T09:17:38.543Z,8.83
2019-05-16T09:20:08.938Z,9.06
2019-05-16T09:22:37.987Z,9.15
2019-05-16T09:25:08.142Z,9.23
2019-05-16T09:27:38.088Z,9.31
2019-05-16T09:30:08.700Z,9.25
2019-05-16T09:32:37.291Z,9.65
2019-05-16T09:35:09.677Z,9.82
2019-05-16T09:37:38.365Z,9.86
2019-05-16T09:40:08.302Z,9.79
2019-05-16T09:42:37.399Z,9.59
2019-05-16T09:45:07.484Z,9.98
2019-05-16T09:47:39.085Z,10.23
2019-05-16T09:50:09.290Z,10.56
2019-05-16T09:52:38.345Z,10.95
2019-05-16T09:55:08.035Z,10.95
2019-05-16T09:57:37.657Z,10.47
2019-05-16T10:00:09.342Z,10.37
2019-05-16T10:02:38.235Z,10.24
2019-05-16T10:05:13.261Z,9.78
2019-05-16T10:07:38.851Z,10.20
2019-05-16T10:10:08.458Z,10.71
2019-05-16T10:12:37.235Z,10.76
2019-05-16T10:15:07.651Z,10.44
2019-05-16T10:17:37.026Z,10.41
2019-05-16T10:20:08.134Z,10.86
2019-05-16T10:22:37.417Z,10.72
2019-05-16T10:25:07.389Z,11.05
2019-05-16T10:27:37.440Z,11.22
2019-05-16T10:30:08.470Z,11.46
2019-05-16T10:32:39.733Z,11.24
2019-05-16T10:35:08.853Z,11.87
2019-05-16T10:37:37.630Z,11.55
2019-05-16T10:40:07.586Z,11.50
2019-05-16T10:42:38.109Z,11.26
2019-05-16T10:45:09.058Z,11.09
2019-05-16T10:47:37.604Z,10.94
2019-05-16T10:50:08.202Z,10.93
2019-05-16T10:52:36.952Z,11.54
2019-05-16T10:55:08.356Z,11.79
2019-05-16T10:57:37.956Z,12.33
2019-05-16T11:00:18.107Z,12.40
2019-05-16T11:02:38.387Z,11.80
2019-05-16T11:05:28.730Z,11.84
2019-05-16T11:07:38.099Z,12.26
2019-05-16T11:10:07.941Z,11.83
2019-05-16T11:12:47.779Z,11.93
2019-05-16T11:15:11.404Z,12.32
2019-05-16T11:17:39.545Z,12.20
2019-05-16T11:20:08.342Z,12.44
2019-05-16T11:22:37.238Z,12.86
2019-05-16T11:25:21.388Z,12.90
2019-05-16T11:27:37.778Z,12.52
2019-05-16T11:30:07.725Z,12.02
2019-05-16T11:32:37.499Z,12.00
2019-05-16T11:35:09.371Z,12.15
2019-05-16T11:37:38.093Z,12.50
2019-05-16T11:40:08.412Z,12.76
2019-05-16T11:42:38.048Z,12.85
2019-05-16T11:45:09.692Z,12.72
2019-05-16T11:47:38.550Z,12.94
2019-05-16T11:50:09.477Z,13.08
2019-05-16T11:52:40.571Z,13.21
2019-05-16T11:55:09.268Z,13.44
2019-05-16T11:57:38.154Z,13.47
2019-05-16T12:00:12.587Z,13.49
2019-05-16T12:02:42.865Z,13.33
2019-05-16T12:05:11.765Z,13.35
2019-05-16T12:07:44.206Z,13.19
2019-05-16T12:10:11.701Z,13.43
2019-05-16T12:12:40.404Z,13.65
2019-05-16T12:15:09.774Z,13.00
2019-05-16T12:17:38.699Z,12.95
2019-05-16T12:20:07.976Z,13.14
2019-05-16T12:22:37.710Z,13.42
2019-05-16T12:25:08.251Z,13.59
2019-05-16T12:27:42.237Z,13.31
2019-05-16T12:30:13.758Z,13.08
2019-05-16T12:32:38.907Z,13.16
2019-05-16T12:35:07.599Z,13.19
2019-05-16T12:37:37.191Z,13.31
2019-05-16T12:40:07.821Z,13.28
2019-05-16T12:42:36.676Z,13.22
2019-05-16T12:45:09.011Z,13.53
2019-05-16T12:47:37.803Z,13.76
2019-05-16T12:50:13.798Z,13.88
2019-05-16T12:52:42.285Z,13.40
2019-05-16T12:55:11.275Z,13.65
2019-05-16T12:57:40.010Z,13.93
2019-05-16T13:00:15.404Z,13.84
2019-05-16T13:02:40.970Z,13.77
2019-05-16T13:05:09.707Z,13.88
2019-05-16T13:07:38.181Z,13.44
2019-05-16T13:10:08.346Z,13.59
2019-05-16T13:12:38.023Z,13.79
2019-05-16T13:15:07.427Z,13.88
2019-05-16T13:17:37.172Z,14.30
2019-05-16T13:20:07.726Z,14.66
2019-05-16T13:22:38.373Z,14.99
2019-05-16T13:25:08.140Z,14.93
2019-05-16T13:27:37.267Z,15.06
2019-05-16T13:30:11.071Z,15.02
2019-05-16T13:32:39.729Z,14.53
2019-05-16T13:35:08.306Z,13.46
2019-05-16T13:37:36.707Z,13.62
2019-05-16T13:40:08.874Z,13.17
2019-05-16T13:42:37.299Z,13.52
2019-05-16T13:45:10.241Z,13.74
2019-05-16T13:47:39.037Z,13.93
2019-05-16T13:50:12.126Z,13.84
2019-05-16T13:52:38.474Z,13.88
2019-05-16T13:55:08.173Z,13.91
2019-05-16T13:57:37.362Z,13.85
2019-05-16T14:00:10.171Z,14.09
2019-05-16T14:02:39.154Z,14.10
2019-05-16T14:05:08.607Z,14.00
2019-05-16T14:07:37.726Z,13.91
2019-05-16T14:10:09.569Z,13.89
2019-05-16T14:12:38.480Z,13.75
2019-05-16T14:15:11.116Z,13.97
2019-05-16T14:17:39.515Z,14.09
2019-05-16T14:20:14.455Z,13.75
2019-05-16T14:22:39.996Z,13.59
2019-05-16T14:25:08.934Z,13.78
2019-05-16T14:27:38.136Z,13.71
2019-05-16T14:30:09.061Z,13.64
2019-05-16T14:32:41.920Z,13.70
2019-05-16T14:35:09.155Z,13.32
2019-05-16T14:37:38.292Z,13.40
2019-05-16T14:40:08.459Z,13.17
2019-05-16T14:42:38.516Z,13.14
2019-05-16T14:45:12.744Z,12.84
2019-05-16T14:47:40.276Z,12.85
2019-05-16T14:50:13.929Z,12.84
2019-05-16T14:52:42.173Z,12.81
2019-05-16T14:55:10.951Z,12.83
2019-05-16T14:57:39.426Z,12.68
2019-05-16T15:00:09.554Z,12.68
2019-05-16T15:02:38.754Z,12.59
2019-05-16T15:05:08.185Z,12.51
2019-05-16T15:07:37.591Z,12.70
2019-05-16T15:10:08.097Z,12.80
2019-05-16T15:12:37.614Z,12.96
2019-05-16T15:15:20.217Z,13.11
2019-05-16T15:17:38.460Z,12.65
2019-05-16T15:20:09.790Z,12.86
2019-05-16T15:22:38.722Z,12.95
2019-05-16T15:25:08.365Z,13.35
2019-05-16T15:27:37.293Z,13.51
2019-05-16T15:30:08.721Z,13.70
2019-05-16T15:32:38.568Z,13.75
2019-05-16T15:35:08.052Z,13.52
2019-05-16T15:37:37.423Z,13.49
2019-05-16T15:40:07.669Z,13.32
2019-05-16T15:42:37.323Z,13.35
2019-05-16T15:45:08.088Z,13.19
2019-05-16T15:47:37.741Z,13.03
2019-05-16T15:50:11.155Z,12.94
2019-05-16T15:52:40.028Z,12.55
2019-05-16T15:55:10.403Z,12.27
2019-05-16T15:57:38.894Z,11.88
2019-05-16T16:00:10.711Z,11.83
2019-05-16T16:02:39.561Z,11.79
2019-05-16T16:05:10.013Z,11.62
2019-05-16T16:07:38.446Z,11.71
2019-05-16T16:10:07.998Z,11.68
2019-05-16T16:12:37.720Z,11.56
2019-05-16T16:15:07.745Z,11.52
2019-05-16T16:17:38.175Z,11.38
2019-05-16T16:20:10.342Z,11.28
2019-05-16T16:22:37.928Z,11.36
2019-05-16T16:25:07.465Z,11.35
2019-05-16T16:27:36.183Z,11.46
2019-05-16T16:30:07.074Z,11.30
2019-05-16T16:32:37.952Z,11.22
2019-05-16T16:35:08.112Z,11.17
2019-05-16T16:37:37.741Z,11.23
2019-05-16T16:40:10.990Z,11.29
2019-05-16T16:42:37.719Z,11.23
2019-05-16T16:45:10.083Z,11.06
2019-05-16T16:47:38.879Z,11.09
2019-05-16T16:50:08.424Z,11.00
2019-05-16T16:52:37.930Z,11.02
2019-05-16T16:55:08.038Z,10.96
2019-05-16T16:57:38.341Z,11.07
2019-05-16T17:00:09.011Z,11.14
2019-05-16T17:02:37.772Z,11.12
2019-05-16T17:05:12.548Z,11.08
2019-05-16T17:07:38.554Z,11.14
2019-05-16T17:10:09.074Z,10.99
2019-05-16T17:12:41.336Z,10.95
2019-05-16T17:15:09.364Z,10.94
2019-05-16T17:17:37.889Z,10.80
2019-05-16T17:20:07.992Z,10.78
2019-05-16T17:22:37.766Z,10.82
2019-05-16T17:25:08.539Z,10.78
2019-05-16T17:27:37.629Z,10.82
2019-05-16T17:30:16.965Z,10.87
2019-05-16T17:32:45.445Z,10.96
2019-05-16T17:35:18.766Z,11.01
2019-05-16T17:37:46.785Z,11.00
2019-05-16T17:40:17.569Z,11.02
2019-05-16T17:42:47.552Z,10.98
2019-05-16T17:45:18.098Z,11.04
2019-05-16T17:47:46.934Z,11.09
2019-05-16T17:50:17.213Z,11.19
2019-05-16T17:52:47.695Z,11.27
2019-05-16T17:55:17.525Z,11.35
2019-05-16T17:57:46.281Z,11.24
2019-05-16T18:00:25.184Z,11.24
2019-05-16T18:02:47.022Z,11.11
2019-05-16T18:05:17.016Z,10.99
2019-05-16T18:07:47.387Z,10.88
2019-05-16T18:10:17.001Z,10.80
2019-05-16T18:12:47.735Z,10.74
2019-05-16T18:15:18.625Z,10.63
2019-05-16T18:17:47.035Z,10.55
2019-05-16T18:20:15.878Z,10.50
2019-05-16T18:22:47.009Z,10.43
2019-05-16T18:25:16.387Z,10.37
2019-05-16T18:27:44.898Z,10.29
2019-05-16T18:30:16.450Z,10.18
2019-05-16T18:32:44.282Z,10.16
2019-05-16T18:35:13.497Z,10.05
2019-05-16T18:37:41.889Z,9.94
2019-05-16T18:40:10.944Z,9.83
2019-05-16T18:42:39.349Z,9.75
2019-05-16T18:45:08.520Z,9.65
2019-05-16T18:47:37.824Z,9.58
2019-05-16T18:50:10.297Z,9.50
2019-05-16T18:52:38.703Z,9.44
2019-05-16T18:55:08.689Z,9.36
2019-05-16T18:57:37.977Z,9.29
2019-05-16T19:00:10.915Z,9.24
2019-05-16T19:02:39.086Z,9.18
2019-05-16T19:05:08.487Z,9.06
2019-05-16T19:07:37.164Z,9.01
2019-05-16T19:10:07.381Z,8.93
2019-05-16T19:12:37.275Z,8.87
2019-05-16T19:15:09.866Z,8.80
2019-05-16T19:17:38.435Z,8.73
2019-05-16T19:20:07.790Z,8.64
2019-05-16T19:22:37.191Z,8.55
2019-05-16T19:25:07.207Z,8.50
2019-05-16T19:27:37.089Z,8.42
2019-05-16T19:30:09.478Z,8.33
2019-05-16T19:32:39.626Z,8.21
2019-05-16T19:35:08.831Z,8.14
2019-05-16T19:37:40.427Z,8.07
2019-05-16T19:40:07.898Z,7.95
2019-05-16T19:42:37.080Z,7.92
2019-05-16T19:45:08.518Z,7.85
2019-05-16T19:47:40.944Z,7.77
2019-05-16T19:50:08.910Z,7.69
2019-05-16T19:52:37.661Z,7.51
2019-05-16T19:55:07.729Z,7.40
2019-05-16T19:57:37.390Z,7.28
2019-05-16T20:00:08.592Z,7.17
2019-05-16T20:02:37.488Z,7.03
2019-05-16T20:05:07.529Z,6.94
2019-05-16T20:07:37.251Z,6.85
2019-05-16T20:10:09.509Z,6.74
2019-05-16T20:12:37.763Z,6.62
2019-05-16T20:15:11.652Z,6.52
2019-05-16T20:17:50.957Z,6.42
2019-05-16T20:20:09.256Z,6.30
2019-05-16T20:22:37.698Z,6.19
2019-05-16T20:25:07.424Z,6.04
2019-05-16T20:27:36.847Z,5.96
2019-05-16T20:30:07.125Z,5.83
2019-05-16T20:32:37.171Z,5.74
2019-05-16T20:35:09.287Z,5.66
2019-05-16T20:37:37.704Z,5.64
2019-05-16T20:40:09.223Z,5.54
2019-05-16T20:42:37.187Z,5.53
2019-05-16T20:45:16.896Z,5.46
2019-05-16T20:47:48.347Z,5.41
2019-05-16T20:50:18.580Z,5.37
2019-05-16T20:52:48.675Z,5.36
2019-05-16T20:55:28.188Z,5.31
2019-05-16T20:58:07.734Z,5.29
2019-05-16T21:00:31.008Z,5.28
2019-05-16T21:02:59.692Z,5.31
2019-05-16T21:05:30.257Z,5.30
2019-05-16T21:07:58.761Z,5.26
2019-05-16T21:10:27.531Z,5.10
2019-05-16T21:12:57.430Z,5.14
2019-05-16T21:15:26.393Z,5.08
2019-05-16T21:17:57.253Z,5.05
2019-05-16T21:20:27.034Z,4.96
2019-05-16T21:22:56.444Z,4.89
2019-05-16T21:25:26.384Z,4.88
2019-05-16T21:27:57.104Z,4.84
2019-05-16T21:30:30.459Z,4.79
2019-05-16T21:33:02.006Z,4.79
2019-05-16T21:35:37.379Z,4.71
2019-05-16T21:38:08.728Z,4.68
2019-05-16T21:40:37.885Z,4.66
2019-05-16T21:43:07.517Z,4.62
2019-05-16T21:45:37.168Z,4.59
2019-05-16T21:48:09.926Z,4.58
2019-05-16T21:50:40.863Z,4.55
2019-05-16T21:53:13.454Z,4.50
2019-05-16T21:55:50.717Z,4.49
2019-05-16T21:58:19.306Z,4.28
2019-05-16T22:00:53.863Z,4.40
2019-05-16T22:03:26.973Z,4.37
2019-05-16T22:05:57.579Z,4.32
2019-05-16T22:08:25.935Z,4.26
2019-05-16T22:10:57.727Z,4.22
2019-05-16T22:13:26.457Z,4.16
2019-05-16T22:15:56.908Z,4.12
2019-05-16T22:18:25.440Z,4.06
2019-05-16T22:20:56.895Z,4.01
2019-05-16T22:23:27.751Z,3.97
2019-05-16T22:25:57.073Z,3.90
2019-05-16T22:28:27.445Z,3.88
2019-05-16T22:30:58.569Z,3.83
2019-05-16T22:33:29.802Z,3.80
2019-05-16T22:35:58.442Z,3.76
2019-05-16T22:38:28.866Z,3.76
2019-05-16T22:40:58.987Z,3.71
2019-05-16T22:43:27.596Z,3.69
2019-05-16T22:45:59.288Z,3.66
2019-05-16T22:48:29.462Z,3.59
2019-05-16T22:50:57.950Z,3.55
2019-05-16T22:53:27.284Z,3.47
2019-05-16T22:56:00.849Z,3.42
2019-05-16T22:58:34.279Z,3.41
2019-05-16T23:01:03.634Z,3.36
2019-05-16T23:03:41.202Z,3.30
2019-05-16T23:06:09.771Z,3.28
2019-05-16T23:08:38.421Z,3.22
2019-05-16T23:11:07.458Z,3.19
2019-05-16T23:13:37.900Z,3.17
2019-05-16T23:16:06.874Z,3.12
2019-05-16T23:18:37.446Z,3.08
2019-05-16T23:21:06.504Z,3.07
2019-05-16T23:23:37.996Z,3.03
2019-05-16T23:26:06.649Z,3.01
2019-05-16T23:28:36.832Z,2.97
2019-05-16T23:31:11.499Z,2.96
2019-05-16T23:33:46.986Z,2.81
2019-05-16T23:36:17.481Z,2.89
2019-05-16T23:38:50.701Z,2.85
2019-05-16T23:41:19.344Z,2.81
2019-05-16T23:43:47.973Z,2.75
2019-05-16T23:46:19.563Z,2.57
2019-05-16T23:48:52.832Z,2.69
2019-05-16T23:51:21.392Z,2.64
2019-05-16T23:53:50.003Z,2.62
2019-05-16T23:56:18.455Z,2.32
2019-05-16T23:58:47.692Z,2.34
